No se requiere ningun cuidado especial respecto a la situación metereológica.   -   No hay avisos

Informes METAR

 

KSJC - San Jose, California, USA
Distancia de la estación: NE 14km
Actualización: 27/09/2022 06:53
Muy nuboso
Muy nuboso
 Viento de N
Viento: N 13 km/h
Temperatura: 16°C
Rocío: 13°C
Humedad: 83%
Barómetro: 1015.2 hPa
Nubes: Muy nuboso
Visibilidad: 16 km
Detalles de las nubes: Parcialmente nuboso 366 m
Muy nuboso 610 m
2022/09/27 04:53 KSJC 270453Z 35007KT 10SM SCT012 BKN020 16/13 A2998 RMK AO2 SLP150 T01610128
KNUQ - Moffett Nas/Mtn, California, USA
Distancia de la estación: N 14km
Actualización: 27/09/2022 06:35
Despejado
Despejado
 Viento de N
Viento: N 20 km/h
Temperatura: 15°C
Rocío: 13°C
Humedad: 88%
Barómetro: 1015.2 hPa
Nubes: Despejado
Visibilidad: 16 km
2022/09/27 04:35 KNUQ 270435Z AUTO 35011KT 10SM CLR 15/13 A2998 RMK AO2
 
KPAO - Palo Alto, California, USA
Distancia de la estación: NNO 23km
Actualización: 27/09/2022 05:47
Despejado
Despejado
 Viento de variable
Viento: variable 9 km/h
Temperatura: 14°C
Rocío: 12°C
Humedad: 88%
Barómetro: 1014.9 hPa
Nubes: Despejado
Visibilidad: 16 km
2022/09/27 03:47 KPAO 270347Z VRB05KT 10SM SKC 14/12 A2997 RMK LAST
KRHV - San Jose/Reid, California, USA
Distancia de la estación: ENE 19km
Actualización: 27/09/2022 06:47
Despejado
Despejado
 Viento de ONO
Viento: ONO 13 km/h
Temperatura: 16°C
Rocío: 13°C
Humedad: 83%
Barómetro: 1015.2 hPa
Nubes: Despejado
Visibilidad: 16 km
2022/09/27 04:47 KRHV 270447Z 30007KT 10SM SKC 16/13 A2998 RMK LAST
 
KOAK - Oakland, California, USA
Distancia de la estación: NNO 50km
Actualización: 27/09/2022 06:53
Muy nuboso
Muy nuboso
 Viento de O
Viento: O 17 km/h
Temperatura: 14°C
Rocío: 12°C
Humedad: 88%
Barómetro: 1015.6 hPa
Nubes: Muy nuboso
Visibilidad: 16 km
Detalles de las nubes: Muy nuboso 274 m
2022/09/27 04:53 KOAK 270453Z 27009KT 10SM BKN009 14/12 A2999 RMK AO2 SLP154 T01440117
KSQL - San Carlos Airpo, California, USA
Distancia de la estación: NO 34km
Actualización: 27/09/2022 06:55
Despejado
Despejado
 Viento de calm
Viento: Calma
Temperatura: 14°C
Rocío: 12°C
Humedad: 88%
Barómetro: 1015.6 hPa
Nubes: Despejado
Visibilidad: 16 km
2022/09/27 04:55 KSQL 270455Z AUTO 00000KT 10SM CLR 14/12 A2999 RMK AO2
 
KSFO - San Francisco, California, USA
Distancia de la estación: NO 49km
Actualización: 27/09/2022 05:56
Parcialmente nuboso
Parcialmente nuboso
 Viento de ONO
Viento: ONO 28 km/h
Temperatura: 14°C
Rocío: 12°C
Humedad: 88%
Barómetro: 1014.9 hPa
Nubes: Parcialmente nuboso
Visibilidad: 16 km
Detalles de las nubes: Poco nuboso 213 m
Parcialmente nuboso 274 m
2022/09/27 03:56 KSFO 270356Z 29015KT 10SM FEW007 SCT009 14/12 A2997 RMK AO2 SLP148 T01440122
KE16 - San Martin, California, USA
Distancia de la estación: ESE 43km
Actualización: 27/09/2022 06:35
Cubierto
Cubierto
 Viento de SE
Viento: SE 6 km/h
Temperatura: 15°C
Rocío: 13°C
Humedad: 88%
Barómetro: 1015.6 hPa
Nubes: Cubierto
Visibilidad: 16 km
Detalles de las nubes: Parcialmente nuboso 396 m
Muy nuboso 701 m
Cubierto 1311 m
2022/09/27 04:35 KE16 270435Z AUTO 13003KT 10SM SCT013 BKN023 OVC043 15/13 A2999 RMK AO2 PWINO PNO
 
KWVI - Watsonville, California, USA
Distancia de la estación: SSE 44km
Actualización: 27/09/2022 06:53
Cubierto
Cubierto
 Viento de ESE
Viento: ESE 11 km/h
Temperatura: 13°C
Rocío: 13°C
Humedad: 100%
Barómetro: 1015.6 hPa
Nubes: Cubierto
Visibilidad: 14 km
Detalles de las nubes: Cubierto 152 m
2022/09/27 04:53 KWVI 270453Z AUTO 12006KT 9SM OVC005 13/13 A2999 RMK AO2 SLP154 T01330128
KHAF - Half Moon Bay, California, USA
Distancia de la estación: ONO 50km
Actualización: 27/09/2022 06:55
Cubierto
Cubierto
 Viento de ONO
Viento: ONO 9 km/h
Temperatura: 14°C
Rocío: 14°C
Humedad: 100%
Barómetro: 1015.6 hPa
Nubes: Cubierto
Visibilidad: 14 km
Detalles de las nubes: Cubierto 244 m
2022/09/27 04:55 KHAF 270455Z AUTO 30005KT 9SM OVC008 14/14 A2999 RMK AO2
 
KHWD - Hayward, California, USA
Distancia de la estación: N 44km
Actualización: 27/09/2022 06:54
Cubierto
Cubierto
 Viento de NO
Viento: NO 11 km/h
Temperatura: 14°C
Rocío: 12°C
Humedad: 88%
Barómetro: 1015.2 hPa
Nubes: Cubierto
Visibilidad: 16 km
Detalles de las nubes: Cubierto 305 m
2022/09/27 04:54 KHWD 270454Z 32006KT 10SM OVC010 14/12 A2998 RMK AO2 SLP161 T01440122
KLVK - Livermore, California, USA
Distancia de la estación: NNE 51km
Actualización: 27/09/2022 06:53
Despejado
Despejado
 Viento de NO
Viento: NO 17 km/h
Temperatura: 15°C
Rocío: 12°C
Humedad: 82%
Barómetro: 1014.2 hPa
Nubes: Despejado
Visibilidad: 16 km
2022/09/27 04:53 KLVK 270453Z AUTO 31009KT 10SM CLR 15/12 A2995 RMK AO2 SLP139 T01500122